Time;durP1;ratioP1;P1;durP2;ratioP2;P2;SDS_P1;SDS_P2;PMS_P1;PMS_P2;Temp;Humidity;BMP_temperature;BMP_pressure;BME280_temperature;BME280_humidity;BME280_pressure;Samples;Min_cycle;Max_cycle;Signal;HPM_P1;HPM_P2
2021/10/14 00:02:13;;;;;;;29.57;17.87;;;;;;;12.76;100.00;99316.41;1716137;84;21476;-74
2021/10/14 00:04:40;;;;;;;28.92;17.00;;;;;;;12.73;100.00;99326.62;1715991;84;21070;-74
2021/10/14 00:07:07;;;;;;;30.40;16.80;;;;;;;12.70;100.00;99324.31;1716196;84;21019;-74
2021/10/14 00:09:33;;;;;;;27.17;16.62;;;;;;;12.65;100.00;99322.72;1716367;84;21515;-73
2021/10/14 00:12:02;;;;;;;25.92;15.25;;;;;;;12.62;100.00;99333.14;1716246;84;21078;-74
2021/10/14 00:14:29;;;;;;;26.80;16.05;;;;;;;12.57;100.00;99334.26;1716120;84;21097;-74
2021/10/14 00:16:57;;;;;;;26.33;15.53;;;;;;;12.53;100.00;99339.25;1716503;84;21449;-74
2021/10/14 00:19:24;;;;;;;25.52;15.30;;;;;;;12.48;100.00;99334.45;1716128;84;21046;-74
2021/10/14 00:21:51;;;;;;;24.10;14.25;;;;;;;12.46;100.00;99339.73;1716412;82;21011;-75
2021/10/14 00:24:18;;;;;;;26.17;14.40;;;;;;;12.43;100.00;99339.63;1716330;84;20990;-74
2021/10/14 00:26:45;;;;;;;24.05;14.07;;;;;;;12.40;100.00;99336.48;1716444;82;21062;-75
2021/10/14 00:29:11;;;;;;;24.87;14.78;;;;;;;12.38;100.00;99333.11;1716375;84;21516;-73
2021/10/14 00:31:38;;;;;;;24.07;14.65;;;;;;;12.39;100.00;99328.02;1716521;84;20987;-73
2021/10/14 00:34:04;;;;;;;26.65;17.30;;;;;;;12.39;100.00;99337.51;1716440;84;21031;-73
2021/10/14 00:36:32;;;;;;;31.40;22.25;;;;;;;12.39;100.00;99343.76;1716032;83;21043;-75
2021/10/14 00:38:59;;;;;;;34.05;25.55;;;;;;;12.37;100.00;99348.55;1716023;84;21038;-73
2021/10/14 00:41:26;;;;;;;38.95;27.85;;;;;;;12.33;100.00;99348.11;1716111;84;21561;-73
2021/10/14 00:43:57;;;;;;;41.63;30.27;;;;;;;12.30;100.00;99344.96;1716273;84;21031;-73
2021/10/14 00:46:24;;;;;;;41.55;31.60;;;;;;;12.27;100.00;99358.41;1718193;83;21041;-73
2021/10/14 00:48:52;;;;;;;46.92;34.03;;;;;;;12.23;100.00;99349.51;1723114;83;21499;-75
2021/10/14 00:51:19;;;;;;;48.05;37.03;;;;;;;12.14;100.00;99351.00;1722823;83;21602;-75
2021/10/14 00:53:46;;;;;;;53.28;40.10;;;;;;;12.10;100.00;99353.80;1722762;83;21599;-75
2021/10/14 00:56:14;;;;;;;50.10;36.77;;;;;;;12.05;100.00;99355.44;1723198;83;21066;-74
2021/10/14 00:58:40;;;;;;;45.83;35.95;;;;;;;11.99;100.00;99357.56;1694641;83;21073;-74
2021/10/14 01:01:07;;;;;;;46.98;35.58;;;;;;;11.93;100.00;99365.97;1722911;83;21050;-75
2021/10/14 01:03:34;;;;;;;50.90;39.73;;;;;;;11.86;100.00;99373.17;1722889;83;21540;-74
2021/10/14 01:06:00;;;;;;;48.42;38.02;;;;;;;11.72;100.00;99372.21;1722972;83;21026;-74
2021/10/14 01:08:27;;;;;;;44.77;35.52;;;;;;;11.61;100.00;99374.93;1722893;83;21026;-73
2021/10/14 01:10:53;;;;;;;46.65;35.10;;;;;;;11.49;100.00;99383.25;1722969;83;21504;-74
2021/10/14 01:13:20;;;;;;;51.08;36.48;;;;;;;11.41;100.00;99396.41;1722731;83;21035;-74
2021/10/14 01:15:48;;;;;;;48.90;36.20;;;;;;;11.32;100.00;99402.45;1723083;83;21034;-74
2021/10/14 01:18:14;;;;;;;48.17;36.30;;;;;;;11.22;100.00;99397.85;1722720;83;21548;-73
2021/10/14 01:20:41;;;;;;;50.90;38.42;;;;;;;11.13;100.00;99403.06;1722801;83;21105;-74
2021/10/14 01:23:09;;;;;;;49.98;37.55;;;;;;;11.02;100.00;99405.22;1722762;83;21027;-74
2021/10/14 01:25:37;;;;;;;48.48;34.90;;;;;;;10.95;100.00;99410.23;1723025;83;21097;-75
2021/10/14 01:28:04;;;;;;;45.25;32.48;;;;;;;10.89;100.00;99413.68;1722757;83;21065;-72
2021/10/14 01:30:32;;;;;;;44.48;32.50;;;;;;;10.84;100.00;99419.67;1723160;83;21035;-74
2021/10/14 01:32:58;;;;;;;44.53;31.68;;;;;;;10.77;100.00;99423.64;1722867;83;21042;-73
2021/10/14 01:35:25;;;;;;;42.83;31.93;;;;;;;10.74;100.00;99436.17;1723132;83;21053;-73
2021/10/14 01:37:52;;;;;;;48.25;34.10;;;;;;;10.69;100.00;99433.19;1722554;83;21042;-74
2021/10/14 01:40:18;;;;;;;40.58;31.27;;;;;;;10.63;100.00;99447.46;1722854;83;21033;-74
2021/10/14 01:42:45;;;;;;;36.17;27.48;;;;;;;10.56;100.00;99457.34;1723008;83;21015;-74
2021/10/14 01:45:11;;;;;;;32.03;23.80;;;;;;;10.48;100.00;99462.30;1722904;82;21026;-74
2021/10/14 01:47:38;;;;;;;29.72;21.42;;;;;;;10.42;100.00;99465.23;1722755;83;21050;-74
2021/10/14 01:50:07;;;;;;;29.72;22.70;;;;;;;10.35;100.00;99464.30;1723039;83;21011;-74
2021/10/14 01:52:33;;;;;;;31.97;24.82;;;;;;;10.29;100.00;99476.31;1688055;84;21122;-75
2021/10/14 01:55:00;;;;;;;30.08;22.58;;;;;;;10.19;100.00;99476.58;1688586;85;21615;-75
2021/10/14 01:57:27;;;;;;;28.83;21.40;;;;;;;10.11;100.00;99476.15;1688492;85;21071;-75
2021/10/14 01:59:53;;;;;;;29.32;21.45;;;;;;;10.09;100.00;99480.87;1688433;85;21008;-74
2021/10/14 02:02:21;;;;;;;29.30;21.80;;;;;;;10.08;100.00;99486.79;1688156;85;21079;-74
2021/10/14 02:04:47;;;;;;;28.50;20.45;;;;;;;10.05;100.00;99495.25;1688413;85;21023;-74
2021/10/14 02:07:14;;;;;;;27.58;19.73;;;;;;;10.03;100.00;99496.47;1688181;85;21490;-74
2021/10/14 02:09:40;;;;;;;25.47;19.00;;;;;;;10.01;100.00;99494.45;1688538;85;21052;-73
2021/10/14 02:12:07;;;;;;;24.10;17.95;;;;;;;9.97;100.00;99495.33;1688382;85;21080;-73
2021/10/14 02:14:35;;;;;;;22.20;16.27;;;;;;;9.91;100.00;99503.31;1688258;85;22416;-74
2021/10/14 02:17:02;;;;;;;20.73;13.30;;;;;;;9.84;100.00;99508.09;1688145;85;21079;-74
2021/10/14 02:19:30;;;;;;;18.77;11.55;;;;;;;9.81;100.00;99498.98;1688233;85;21052;-74
2021/10/14 02:21:57;;;;;;;16.30;9.90;;;;;;;9.78;100.00;99507.44;1688393;85;21044;-74
2021/10/14 02:24:23;;;;;;;11.43;7.47;;;;;;;9.75;100.00;99519.94;1688370;85;21124;-74
2021/10/14 02:26:50;;;;;;;14.23;7.80;;;;;;;9.70;100.00;99530.42;1688325;85;21039;-73
2021/10/14 02:29:16;;;;;;;11.10;6.43;;;;;;;9.63;100.00;99532.16;1688101;85;21071;-73
2021/10/14 02:31:43;;;;;;;7.33;4.75;;;;;;;9.61;100.00;99536.90;1688596;85;21106;-73
2021/10/14 02:34:10;;;;;;;7.17;4.40;;;;;;;9.58;100.00;99538.11;1688406;85;21083;-73
2021/10/14 02:36:36;;;;;;;5.20;3.92;;;;;;;9.54;100.00;99539.45;1688481;84;21047;-74
2021/10/14 02:39:04;;;;;;;4.87;3.60;;;;;;;9.52;100.00;99544.72;1687848;85;21078;-74
2021/10/14 02:41:31;;;;;;;4.13;2.60;;;;;;;9.49;100.00;99551.28;1652544;87;21070;-73
2021/10/14 02:43:59;;;;;;;2.47;2.27;;;;;;;9.44;100.00;99558.58;1641248;87;21700;-73
2021/10/14 02:46:25;;;;;;;2.72;2.52;;;;;;;9.41;100.00;99563.48;1684563;83;21024;-72
2021/10/14 02:48:52;;;;;;;3.40;2.50;;;;;;;9.40;100.00;99572.59;1736615;81;21069;-72
2021/10/14 02:51:18;;;;;;;2.50;2.00;;;;;;;9.35;100.00;99569.56;1759684;81;21503;-72
2021/10/14 02:53:46;;;;;;;3.10;1.90;;;;;;;9.31;100.00;99571.29;1759546;81;21010;-72
2021/10/14 02:56:12;;;;;;;2.00;1.40;;;;;;;9.28;100.00;99577.55;1759585;81;20997;-74
2021/10/14 02:58:39;;;;;;;2.25;1.50;;;;;;;9.25;100.00;99581.41;1759664;81;21547;-74
2021/10/14 03:01:05;;;;;;;1.60;1.50;;;;;;;9.24;100.00;99588.33;1759416;81;20986;-73
2021/10/14 03:03:34;;;;;;;1.73;1.60;;;;;;;9.25;100.00;99598.95;1759316;81;21041;-74
2021/10/14 03:06:00;;;;;;;3.30;1.60;;;;;;;9.23;100.00;99590.19;1759811;81;20982;-73
2021/10/14 03:08:27;;;;;;;1.67;1.57;;;;;;;9.19;100.00;99592.05;1759672;81;21018;-73
2021/10/14 03:10:54;;;;;;;1.47;1.37;;;;;;;9.17;100.00;99603.52;1759429;81;21029;-73
2021/10/14 03:13:21;;;;;;;1.20;1.20;;;;;;;9.13;100.00;99609.77;1759565;81;21053;-73
2021/10/14 03:15:49;;;;;;;2.33;1.50;;;;;;;9.10;100.00;99617.71;1759446;81;21045;-72
2021/10/14 03:18:17;;;;;;;2.13;1.37;;;;;;;9.09;100.00;99622.76;1759423;81;21013;-72
2021/10/14 03:20:43;;;;;;;2.60;1.90;;;;;;;9.07;100.00;99628.84;1759731;81;20978;-72
2021/10/14 03:23:11;;;;;;;1.90;1.80;;;;;;;9.05;100.00;99641.66;1759426;81;21057;-73
2021/10/14 03:25:37;;;;;;;3.47;2.20;;;;;;;9.03;100.00;99647.73;1759585;81;21480;-73
2021/10/14 03:28:04;;;;;;;2.60;2.40;;;;;;;9.03;100.00;99658.52;1759623;81;21049;-72
2021/10/14 03:30:31;;;;;;;4.70;3.30;;;;;;;9.02;100.00;99660.03;1759815;81;21045;-72
2021/10/14 03:32:57;;;;;;;7.37;3.70;;;;;;;8.98;100.00;99670.80;1759753;81;21018;-71
2021/10/14 03:35:24;;;;;;;4.70;3.67;;;;;;;8.96;100.00;99671.00;1759712;81;21013;-72
2021/10/14 03:37:53;;;;;;;4.77;3.93;;;;;;;8.96;100.00;99683.14;1759289;81;21025;-72
2021/10/14 03:40:20;;;;;;;5.47;3.67;;;;;;;8.97;100.00;99677.23;1718161;81;21573;-71
2021/10/14 03:42:47;;;;;;;6.10;4.07;;;;;;;8.97;100.00;99691.55;1708873;84;21009;-71
2021/10/14 03:45:14;;;;;;;6.80;4.30;;;;;;;8.99;100.00;99696.77;1708254;84;21044;-71
2021/10/14 03:47:41;;;;;;;5.83;3.60;;;;;;;8.96;100.00;99689.88;1664820;86;21502;-73
2021/10/14 03:50:09;;;;;;;5.80;3.23;;;;;;;8.92;100.00;99688.02;1664481;86;20983;-71
2021/10/14 03:52:36;;;;;;;4.03;2.83;;;;;;;8.88;100.00;99692.05;1705454;84;21107;-72
2021/10/14 03:55:03;;;;;;;3.23;2.53;;;;;;;8.86;100.00;99699.98;1705949;84;21549;-71
2021/10/14 03:57:32;;;;;;;4.50;3.57;;;;;;;8.85;100.00;99711.28;1705485;84;21042;-71
2021/10/14 03:59:58;;;;;;;3.17;2.87;;;;;;;8.85;100.00;99713.98;1705787;84;21552;-71
2021/10/14 04:02:25;;;;;;;2.80;2.50;;;;;;;8.83;100.00;99721.88;1705844;83;21501;-71
2021/10/14 04:04:51;;;;;;;2.70;2.50;;;;;;;8.84;100.00;99725.77;1705633;83;21042;-71
2021/10/14 04:07:18;;;;;;;2.70;2.50;;;;;;;8.85;100.00;99731.98;1705714;84;21028;-71
2021/10/14 04:09:44;;;;;;;3.00;2.70;;;;;;;8.85;100.00;99730.64;1705785;84;21003;-71
2021/10/14 04:12:11;;;;;;;4.80;3.50;;;;;;;8.86;100.00;99728.30;1705564;83;21027;-72
2021/10/14 04:14:38;;;;;;;20.87;12.10;;;;;;;8.86;100.00;99731.83;1705501;83;21046;-72
2021/10/14 04:17:05;;;;;;;21.00;12.40;;;;;;;8.87;100.00;99732.66;1705636;83;21063;-72
2021/10/14 04:19:31;;;;;;;21.00;12.50;;;;;;;8.86;100.00;99743.13;1705868;84;20983;-71
2021/10/14 04:21:58;;;;;;;21.17;13.70;;;;;;;8.86;100.00;99752.05;1705715;84;21031;-72
2021/10/14 04:24:27;;;;;;;21.23;14.23;;;;;;;8.85;100.00;99757.12;1705735;83;21039;-71
2021/10/14 04:26:53;;;;;;;16.73;11.03;;;;;;;8.83;100.00;99771.76;1705902;83;21027;-72
2021/10/14 04:29:19;;;;;;;18.97;11.10;;;;;;;8.79;100.00;99783.89;1705739;84;21528;-72
2021/10/14 04:31:46;;;;;;;17.07;10.17;;;;;;;8.76;100.00;99785.56;1705942;84;21031;-71
2021/10/14 04:34:12;;;;;;;19.13;13.37;;;;;;;8.72;100.00;99792.63;1705693;83;21042;-71
2021/10/14 04:36:39;;;;;;;20.87;15.13;;;;;;;8.70;100.00;99800.55;1705901;84;21074;-72
2021/10/14 04:39:06;;;;;;;21.37;13.60;;;;;;;8.64;100.00;99797.16;1709018;84;21014;-72
2021/10/14 04:41:33;;;;;;;19.23;13.03;;;;;;;8.60;100.00;99803.37;1715957;84;21077;-70
2021/10/14 04:43:59;;;;;;;22.40;15.27;;;;;;;8.56;100.00;99806.07;1715891;84;21042;-70
2021/10/14 04:46:26;;;;;;;23.47;16.67;;;;;;;8.54;100.00;99812.13;1719013;83;21006;-72
2021/10/14 04:48:54;;;;;;;20.70;14.17;;;;;;;8.53;100.00;99819.86;1723452;82;21105;-72
2021/10/14 04:51:21;;;;;;;19.90;13.23;;;;;;;8.53;100.00;99822.08;1724020;83;21050;-71
2021/10/14 04:53:48;;;;;;;20.70;13.40;;;;;;;8.53;100.00;99830.64;1723525;83;21489;-71
2021/10/14 04:56:14;;;;;;;22.30;15.37;;;;;;;8.53;100.00;99846.33;1723504;83;21093;-72
2021/10/14 04:58:41;;;;;;;22.40;16.20;;;;;;;8.53;100.00;99865.67;1723640;83;21062;-71
2021/10/14 05:01:07;;;;;;;22.43;14.63;;;;;;;8.49;100.00;99871.05;1723982;83;21500;-70
2021/10/14 05:03:34;;;;;;;19.57;12.53;;;;;;;8.47;100.00;99877.11;1723635;82;21034;-71
2021/10/14 05:06:01;;;;;;;18.47;12.33;;;;;;;8.45;100.00;99885.36;1723734;82;21046;-73
2021/10/14 05:08:27;;;;;;;20.60;13.93;;;;;;;8.44;100.00;99882.81;1723699;83;21538;-73
2021/10/14 05:10:54;;;;;;;23.43;16.43;;;;;;;8.41;100.00;99889.36;1723817;83;21027;-72
2021/10/14 05:13:21;;;;;;;22.17;14.03;;;;;;;8.39;100.00;99897.23;1723497;82;21054;-73
2021/10/14 05:15:47;;;;;;;21.17;13.63;;;;;;;8.40;100.00;99904.33;1723940;83;21468;-73
2021/10/14 05:18:15;;;;;;;22.37;14.00;;;;;;;8.40;100.00;99919.15;1746017;82;21058;-72
2021/10/14 05:20:41;;;;;;;20.70;14.00;;;;;;;8.40;100.00;99917.30;1749536;82;21031;-72
2021/10/14 05:23:08;;;;;;;20.27;13.77;;;;;;;8.41;100.00;99918.99;1749264;82;21057;-72
2021/10/14 05:25:36;;;;;;;19.43;12.17;;;;;;;8.44;100.00;99921.89;1749439;82;21058;-72
2021/10/14 05:28:04;;;;;;;19.60;12.60;;;;;;;8.45;100.00;99931.67;1749410;82;21491;-70
2021/10/14 05:30:31;;;;;;;20.23;13.80;;;;;;;8.43;100.00;99933.18;1749726;81;21014;-72
2021/10/14 05:32:58;;;;;;;19.10;12.30;;;;;;;8.44;100.00;99936.70;1749078;81;21082;-69
2021/10/14 05:35:24;;;;;;;20.43;12.13;;;;;;;8.44;100.00;99939.41;1749358;81;21050;-70
2021/10/14 05:37:51;;;;;;;19.60;12.97;;;;;;;8.45;100.00;99951.38;1749236;82;20979;-68
2021/10/14 05:40:18;;;;;;;18.30;12.63;;;;;;;8.46;100.00;99955.74;1729120;81;21050;-68
2021/10/14 05:42:45;;;;;;;18.03;11.17;;;;;;;8.47;100.00;99962.00;1734221;82;21030;-70
2021/10/14 05:45:13;;;;;;;17.70;11.00;;;;;;;8.47;100.00;99963.34;1732394;83;21030;-69
2021/10/14 05:47:40;;;;;;;17.30;10.37;;;;;;;8.49;100.00;99969.41;1706312;83;21524;-70
2021/10/14 05:50:08;;;;;;;18.47;11.23;;;;;;;8.53;100.00;99976.16;1729865;83;21007;-70
2021/10/14 05:52:36;;;;;;;20.07;12.47;;;;;;;8.56;100.00;99978.55;1735214;83;21018;-69
2021/10/14 05:55:04;;;;;;;17.83;10.60;;;;;;;8.57;100.00;99973.52;1729245;83;21015;-70
2021/10/14 05:57:33;;;;;;;17.07;10.17;;;;;;;8.59;100.00;99994.41;1733260;83;21501;-70
2021/10/14 06:00:02;;;;;;;22.67;13.93;;;;;;;8.59;100.00;99999.80;1732491;83;21041;-70
2021/10/14 06:02:30;;;;;;;18.53;12.00;;;;;;;8.59;100.00;100002.97;1731023;82;21030;-72
2021/10/14 06:04:57;;;;;;;21.83;11.60;;;;;;;8.58;100.00;100002.66;1732384;83;21497;-74
2021/10/14 06:07:25;;;;;;;25.43;13.50;;;;;;;8.54;100.00;100009.70;1725773;83;20955;-74
2021/10/14 06:09:54;;;;;;;22.40;15.10;;;;;;;8.54;100.00;100016.44;1728455;83;21030;-73
2021/10/14 06:12:21;;;;;;;16.77;10.70;;;;;;;8.55;100.00;100022.66;1732386;83;20971;-73
2021/10/14 06:14:47;;;;;;;14.97;9.43;;;;;;;8.57;100.00;100025.20;1730346;81;21920;-72
2021/10/14 06:17:14;;;;;;;15.33;9.23;;;;;;;8.57;100.00;100028.77;1723485;82;21045;-72
2021/10/14 06:19:41;;;;;;;15.93;9.47;;;;;;;8.57;100.00;100045.41;1723910;83;21045;-73
2021/10/14 06:22:07;;;;;;;19.23;11.47;;;;;;;8.59;100.00;100046.10;1722954;83;21059;-74
2021/10/14 06:24:35;;;;;;;17.60;10.03;;;;;;;8.61;100.00;100055.73;1724124;83;21089;-70
2021/10/14 06:27:02;;;;;;;16.40;9.67;;;;;;;8.63;100.00;100052.38;1724112;83;21072;-71
2021/10/14 06:29:28;;;;;;;16.73;10.10;;;;;;;8.66;100.00;100064.20;1724249;81;21049;-71
2021/10/14 06:31:55;;;;;;;16.90;10.33;;;;;;;8.70;100.00;100065.56;1723758;83;20990;-72
2021/10/14 06:34:21;;;;;;;21.07;12.50;;;;;;;8.69;100.00;100067.06;1724074;83;20994;-71
2021/10/14 06:36:48;;;;;;;17.87;10.93;;;;;;;8.70;100.00;100063.38;1699910;83;21049;-73
2021/10/14 06:39:16;;;;;;;18.50;11.40;;;;;;;8.72;100.00;100071.64;1724129;83;21484;-71
2021/10/14 06:41:43;;;;;;;18.93;11.87;;;;;;;8.72;100.00;100081.08;1723694;83;21070;-72
2021/10/14 06:44:10;;;;;;;18.07;10.53;;;;;;;8.74;100.00;100084.96;1723858;83;21019;-70
2021/10/14 06:46:38;;;;;;;17.60;10.40;;;;;;;8.74;100.00;100089.84;1728659;81;21564;-74
2021/10/14 06:49:05;;;;;;;15.53;10.07;;;;;;;8.79;100.00;100089.38;1724726;83;21058;-72
2021/10/14 06:51:32;;;;;;;19.73;11.37;;;;;;;8.83;100.00;100096.14;1722049;82;21097;-72
2021/10/14 06:53:59;;;;;;;19.53;12.73;;;;;;;8.85;100.00;100085.20;1723363;82;21582;-72
2021/10/14 06:56:28;;;;;;;19.03;11.40;;;;;;;8.87;100.00;100091.27;1722740;83;21023;-74
2021/10/14 06:58:54;;;;;;;17.13;10.67;;;;;;;8.88;100.00;100097.86;1722693;83;20995;-73
2021/10/14 07:01:21;;;;;;;17.87;11.33;;;;;;;8.89;100.00;100106.31;1723018;83;21057;-72
2021/10/14 07:03:48;;;;;;;18.67;11.70;;;;;;;8.88;100.00;100104.60;1743970;81;21005;-72
2021/10/14 07:06:15;;;;;;;25.30;16.77;;;;;;;8.86;100.00;100109.31;1760281;81;20975;-73
2021/10/14 07:08:42;;;;;;;18.87;11.43;;;;;;;8.86;100.00;100117.41;1759511;81;21052;-72
2021/10/14 07:11:09;;;;;;;17.80;10.30;;;;;;;8.86;100.00;100124.66;1760295;81;21551;-74
2021/10/14 07:13:37;;;;;;;17.80;11.10;;;;;;;8.85;100.00;100122.95;1712068;83;21010;-70
2021/10/14 07:16:05;;;;;;;17.67;10.80;;;;;;;8.83;100.00;100118.22;1712458;84;21081;-73
2021/10/14 07:18:31;;;;;;;17.80;10.83;;;;;;;8.81;100.00;100122.42;1702530;84;21040;-70
2021/10/14 07:20:58;;;;;;;17.57;10.37;;;;;;;8.84;100.00;100126.16;1710031;82;20975;-70
2021/10/14 07:23:25;;;;;;;19.20;10.53;;;;;;;8.90;100.00;100132.77;1738247;82;21057;-71
2021/10/14 07:25:51;;;;;;;18.53;10.37;;;;;;;8.93;100.00;100141.38;1712713;82;20986;-70
2021/10/14 07:28:18;;;;;;;17.03;10.33;;;;;;;8.95;100.00;100152.53;1745959;81;21469;-70
2021/10/14 07:30:45;;;;;;;20.07;10.93;;;;;;;8.95;100.00;100158.76;1743230;82;21006;-70
2021/10/14 07:33:11;;;;;;;15.87;9.47;;;;;;;8.95;100.00;100158.76;1742161;82;21022;-70
2021/10/14 07:35:39;;;;;;;16.23;9.33;;;;;;;8.95;100.00;100162.80;1725959;82;21492;-70
2021/10/14 07:38:12;;;;;;;15.53;9.80;;;;;;;8.93;100.00;100171.56;1717241;82;21093;-71
2021/10/14 07:40:41;;;;;;;17.77;10.20;;;;;;;8.91;100.00;100178.97;1717788;82;21038;-71
2021/10/14 07:43:13;;;;;;;23.70;15.50;;;;;;;8.91;100.00;100179.80;1698917;83;21010;-71
2021/10/14 07:45:42;;;;;;;23.43;15.87;;;;;;;8.89;100.00;100179.12;1709607;82;20991;-71
2021/10/14 07:48:08;;;;;;;17.57;10.70;;;;;;;8.93;100.00;100175.09;1685791;82;21014;-70
2021/10/14 07:50:36;;;;;;;22.67;12.37;;;;;;;8.96;100.00;100177.13;1686100;83;21468;-72
2021/10/14 07:53:18;;;;;;;22.77;12.60;;;;;;;8.96;100.00;100190.61;1684718;83;21074;-73
2021/10/14 07:55:48;;;;;;;17.47;9.97;;;;;;;8.94;100.00;100194.81;1629305;87;21076;-70
2021/10/14 07:58:16;;;;;;;20.30;10.50;;;;;;;8.93;100.00;100195.83;1603255;88;21496;-70
2021/10/14 08:00:42;;;;;;;18.87;10.33;;;;;;;8.95;100.00;100200.56;1599754;90;21022;-70
2021/10/14 08:03:09;;;;;;;17.40;10.47;;;;;;;8.96;100.00;100204.97;1607046;88;21092;-70
2021/10/14 08:05:36;;;;;;;18.67;10.97;;;;;;;8.96;100.00;100209.02;1601607;88;21005;-71
2021/10/14 08:08:04;;;;;;;19.37;10.63;;;;;;;8.95;100.00;100214.55;1608940;88;21098;-70
2021/10/14 08:10:32;;;;;;;17.97;10.50;;;;;;;8.95;100.00;100206.46;1603815;88;21025;-72
2021/10/14 08:13:00;;;;;;;18.40;10.53;;;;;;;9.00;100.00;100213.08;1604013;88;21033;-71
2021/10/14 08:15:27;;;;;;;20.13;11.33;;;;;;;9.04;100.00;100220.35;1604096;88;21523;-71
2021/10/14 08:17:54;;;;;;;19.73;10.77;;;;;;;9.06;100.00;100222.39;1600249;88;21097;-72
2021/10/14 08:20:20;;;;;;;20.80;10.23;;;;;;;9.07;100.00;100228.14;1626322;88;21124;-71
2021/10/14 08:22:49;;;;;;;17.70;10.60;;;;;;;9.08;100.00;100234.73;1621884;88;21037;-72
2021/10/14 08:25:16;;;;;;;23.00;12.50;;;;;;;9.11;100.00;100235.74;1609893;88;21014;-72
2021/10/14 08:27:43;;;;;;;19.67;11.73;;;;;;;9.14;100.00;100244.04;1607083;88;21089;-72
2021/10/14 08:30:12;;;;;;;21.73;13.33;;;;;;;9.17;100.00;100259.92;1603499;88;21563;-74
2021/10/14 08:32:42;;;;;;;18.50;11.07;;;;;;;9.17;100.00;100253.66;1597218;90;21112;-69
2021/10/14 08:35:11;;;;;;;19.40;11.00;;;;;;;9.19;100.00;100255.21;1600240;88;21048;-70
2021/10/14 08:37:38;;;;;;;21.47;12.50;;;;;;;9.22;100.00;100256.73;1603506;88;21069;-73
2021/10/14 08:40:06;;;;;;;18.70;11.57;;;;;;;9.22;100.00;100264.32;1603691;88;21118;-70
2021/10/14 08:42:34;;;;;;;19.57;11.70;;;;;;;9.27;100.00;100265.21;1605284;88;21074;-70
2021/10/14 08:45:05;;;;;;;18.50;10.83;;;;;;;9.29;100.00;100259.98;1641511;87;20974;-71
2021/10/14 08:47:33;;;;;;;20.37;12.13;;;;;;;9.36;100.00;100271.52;1604674;87;21100;-73
2021/10/14 08:50:00;;;;;;;22.00;13.40;;;;;;;9.42;100.00;100266.83;1621229;88;21747;-74
2021/10/14 08:52:27;;;;;;;19.70;11.03;;;;;;;9.46;100.00;100271.76;1621713;88;21559;-69
2021/10/14 08:54:56;;;;;;;20.83;12.50;;;;;;;9.46;100.00;100276.31;1621812;88;21111;-68
2021/10/14 08:57:23;;;;;;;19.90;11.47;;;;;;;9.44;100.00;100293.17;1600786;88;21040;-69
2021/10/14 08:59:50;;;;;;;20.30;11.87;;;;;;;9.44;100.00;100299.92;1623983;87;21581;-69
2021/10/14 09:02:20;;;;;;;19.80;11.60;;;;;;;9.43;100.00;100291.47;1642317;87;21018;-69
2021/10/14 09:04:59;;;;;;;19.90;12.33;;;;;;;9.39;100.00;100296.34;1650600;85;21070;-72
2021/10/14 09:07:31;;;;;;;20.60;12.10;;;;;;;9.33;100.00;100306.42;1650510;85;21024;-74
2021/10/14 09:10:01;;;;;;;19.50;11.90;;;;;;;9.33;100.00;100319.05;1647393;87;21080;-72
2021/10/14 09:12:36;;;;;;;20.13;11.67;;;;;;;9.31;100.00;100320.07;1647073;87;21030;-73
2021/10/14 09:15:07;;;;;;;20.27;11.67;;;;;;;9.37;100.00;100312.36;1652101;85;21025;-75
2021/10/14 09:17:42;;;;;;;20.77;12.97;;;;;;;9.40;100.00;100314.23;1647090;87;21077;-70
2021/10/14 09:20:30;;;;;;;21.37;13.90;;;;;;;9.44;100.00;100317.47;1644081;87;21004;-74
2021/10/14 09:23:21;;;;;;;20.63;11.50;;;;;;;9.45;100.00;100322.69;1647249;87;21071;-75
2021/10/14 09:25:51;;;;;;;20.60;11.67;;;;;;;9.45;100.00;100314.59;1646828;84;21068;-74
2021/10/14 09:28:26;;;;;;;20.57;11.97;;;;;;;9.50;100.00;100327.11;1646003;86;21202;-75
2021/10/14 09:30:58;;;;;;;20.30;12.20;;;;;;;9.53;100.00;100330.53;1646653;86;22383;-76
2021/10/14 09:33:40;;;;;;;21.37;12.97;;;;;;;9.54;100.00;100338.95;1646562;85;21071;-74
2021/10/14 09:36:25;;;;;;;23.07;13.33;;;;;;;9.57;100.00;100345.40;1672763;85;21011;-73
2021/10/14 09:38:57;;;;;;;19.53;12.03;;;;;;;9.58;100.00;100342.55;1673148;86;21039;-71
2021/10/14 09:41:25;;;;;;;20.37;11.73;;;;;;;9.61;100.00;100335.45;1673633;85;20988;-71
2021/10/14 09:43:55;;;;;;;22.57;11.70;;;;;;;9.70;100.00;100344.47;1674124;86;21085;-69
2021/10/14 09:46:45;;;;;;;20.33;10.83;;;;;;;9.76;100.00;100353.30;1741303;81;21464;-71
2021/10/14 09:49:28;;;;;;;26.55;17.60;;;;;;;9.78;100.00;100353.98;1711088;82;20995;-70
2021/10/14 09:52:00;;;;;;;24.87;15.53;;;;;;;9.83;100.00;100354.88;1711874;83;21053;-73
2021/10/14 09:54:31;;;;;;;22.13;12.25;;;;;;;9.83;100.00;100344.91;1711287;83;21065;-70
2021/10/14 09:56:59;;;;;;;23.10;12.23;;;;;;;9.89;100.00;100347.47;1712377;82;21430;-70
2021/10/14 09:59:26;;;;;;;22.50;13.20;;;;;;;9.95;100.00;100353.60;1707544;83;21551;-71
2021/10/14 10:01:56;;;;;;;21.97;12.68;;;;;;;9.97;100.00;100356.98;1710390;83;20998;-71
2021/10/14 10:04:26;;;;;;;24.00;13.70;;;;;;;10.01;100.00;100361.56;1712316;83;21002;-71
2021/10/14 10:06:56;;;;;;;27.33;16.23;;;;;;;10.03;100.00;100371.19;1732431;82;21073;-70
2021/10/14 10:09:24;;;;;;;25.00;14.27;;;;;;;10.05;100.00;100369.69;1687584;83;21022;-71
2021/10/14 10:11:53;;;;;;;21.17;12.80;;;;;;;10.08;100.00;100372.08;1665982;85;21035;-71
2021/10/14 10:14:22;;;;;;;23.00;12.20;;;;;;;10.11;100.00;100375.82;1695424;83;21019;-69
2021/10/14 10:17:07;;;;;;;19.37;11.60;;;;;;;10.15;100.00;100384.45;1725831;82;21486;-70
2021/10/14 10:19:48;;;;;;;;;;;;;;;10.29;100.00;100384.34;1730083;82;21067;-70
2021/10/14 10:22:39;;;;;;;20.40;11.23;;;;;;;10.64;100.00;100395.03;1711828;83;20097;-69
2021/10/14 10:25:28;;;;;;;17.67;10.13;;;;;;;11.09;100.00;100386.20;1715824;82;20982;-70
2021/10/14 10:27:57;;;;;;;18.40;10.53;;;;;;;11.43;100.00;100387.94;1717205;82;21045;-71
2021/10/14 10:30:35;;;;;;;19.52;10.90;;;;;;;11.63;100.00;100381.66;1713450;82;21490;-72
2021/10/14 10:33:02;;;;;;;22.50;11.53;;;;;;;11.71;100.00;100387.61;1711986;83;21536;-70
2021/10/14 10:35:47;;;;;;;17.57;9.85;;;;;;;11.82;100.00;100383.19;1714585;83;21269;-71
2021/10/14 10:38:17;;;;;;;29.77;19.87;;;;;;;12.03;100.00;100377.27;1712215;83;21570;-71
2021/10/14 10:40:51;;;;;;;23.85;14.10;;;;;;;12.30;100.00;100376.00;1707419;83;21022;-70
2021/10/14 10:43:22;;;;;;;24.45;14.80;;;;;;;12.65;100.00;100380.63;1712777;83;21077;-73
2021/10/14 10:45:55;;;;;;;21.52;11.60;;;;;;;12.91;100.00;100372.20;1711772;82;21547;-72
2021/10/14 10:48:36;;;;;;;18.42;10.18;;;;;;;13.12;100.00;100373.44;1672723;84;21173;-73
2021/10/14 10:51:06;;;;;;;17.77;9.40;;;;;;;13.29;100.00;100385.86;1661021;85;21047;-74
2021/10/14 10:53:41;;;;;;;18.87;10.13;;;;;;;13.40;100.00;100383.30;1651541;85;21074;-72
2021/10/14 10:56:34;;;;;;;15.58;8.83;;;;;;;13.53;100.00;100385.89;1654244;87;21078;-74
2021/10/14 10:59:03;;;;;;;17.73;9.43;;;;;;;13.73;100.00;100371.30;1615830;89;21094;-74
2021/10/14 11:01:29;;;;;;;15.68;8.90;;;;;;;14.03;100.00;100375.75;1665802;85;21155;-75
2021/10/14 11:04:02;;;;;;;16.02;8.58;;;;;;;14.22;100.00;100391.22;1659998;85;21025;-70
2021/10/14 11:06:32;;;;;;;28.07;17.62;;;;;;;14.27;100.00;100392.00;1658496;85;21021;-70
2021/10/14 11:09:04;;;;;;;20.32;10.82;;;;;;;14.27;100.00;100377.91;1663510;85;21012;-70
2021/10/14 11:11:35;;;;;;;16.50;10.82;;;;;;;14.40;100.00;100377.25;1632209;86;21060;-70
2021/10/14 11:14:02;;;;;;;14.60;8.98;;;;;;;14.50;100.00;100391.41;1645056;87;21020;-76
2021/10/14 11:16:31;;;;;;;16.93;9.43;;;;;;;14.53;100.00;100398.34;1645876;87;21021;-75
2021/10/14 11:18:58;;;;;;;16.70;9.03;;;;;;;14.42;100.00;100397.78;1642201;87;21079;-75
2021/10/14 11:21:26;;;;;;;18.75;10.10;;;;;;;14.26;100.00;100399.33;1641950;87;21049;-78